PWSweather.com
Personal Weather Stations
Station Observations
MADWEATHER
MadeiraPT

MadeiraPT

Lat: 32.735, Lon: -17.194

Elevation: 1063

Station Type: Davis VantagePro2

Latest ConditionsUpdated 9:50:01 AM GMT Thursday, Jul 18, 2019
Currently Today's Max Today's Min Today's Average
Temperature 69.6°F20.9°C 69.6°F20.9°C 64.5°F18.1°C 66.8°F19.3°C
Dew Point 57.3°F14.1°C 57.5°F14.2°C 47.6°F8.7°C 52.7°F11.5°C
Winds 4.6 mph SE7.4 kmh SE 9.2 mph -14.8 kmh - - 4.3 mph 6.9 kmh
Wind Gusts 6.9 mph11.1 kmh 17.3 mph27.8 kmh - -
Humidity 65% 66% 50% 61%
Pressure 30.14 in1020.7 mb 30.18 in1022.0 mb 30.10 in1019.3 mb -
Hour Temp Dew Point Humidity Winds Wind Gusts Pressure Precip Precip Rate Daily Precip Total
09:50 AM 69.6°F20.9°C 57.3°F14.1°C 65% 4.6 mph SE7.4 kmh SE 6.9 mph11.1 kmh 30.14 in1020.7 mb - 0.00 in0.0 mm 0.00 in0.0 mm
09:40 AM 69.2°F20.7°C 57.0°F13.9°C 65% 5.8 mph SE9.3 kmh SE 5.8 mph9.3 kmh 30.14 in1020.7 mb - 0.00 in0.0 mm 0.00 in0.0 mm
09:30 AM 69.3°F20.7°C 57.5°F14.2°C 66% 4.6 mph SE7.4 kmh SE 5.8 mph9.3 kmh 30.13 in1020.3 mb - 0.00 in0.0 mm 0.00 in0.0 mm
09:20 AM 68.8°F20.4°C 56.6°F13.7°C 65% 6.9 mph SE11.1 kmh SE 9.2 mph14.8 kmh 30.13 in1020.3 mb - 0.00 in0.0 mm 0.00 in0.0 mm
09:10 AM 69.2°F20.7°C 56.5°F13.6°C 64% 5.8 mph SE9.3 kmh SE 11.5 mph18.5 kmh 30.13 in1020.3 mb - 0.00 in0.0 mm 0.00 in0.0 mm
09:00 AM 69.2°F20.7°C 56.1°F13.4°C 63% 6.9 mph SE11.1 kmh SE 10.4 mph16.7 kmh 30.13 in1020.3 mb - 0.00 in0.0 mm 0.00 in0.0 mm
08:50 AM 68.7°F20.4°C 56.5°F13.6°C 65% 3.5 mph SE5.6 kmh SE 5.8 mph9.3 kmh 30.13 in1020.3 mb - 0.00 in0.0 mm 0.00 in0.0 mm
08:40 AM 68.6°F20.3°C 56.4°F13.6°C 65% 6.9 mph SE11.1 kmh SE 9.2 mph14.8 kmh 30.13 in1020.3 mb - 0.00 in0.0 mm 0.00 in0.0 mm
08:30 AM 68.4°F20.2°C 56.2°F13.4°C 65% 5.8 mph E9.3 kmh E 9.2 mph14.8 kmh 30.13 in1020.3 mb - 0.00 in0.0 mm 0.00 in0.0 mm
08:20 AM 68.8°F20.4°C 56.1°F13.4°C 64% 5.8 mph E9.3 kmh E 10.4 mph16.7 kmh 30.12 in1020.0 mb - 0.00 in0.0 mm 0.00 in0.0 mm
08:10 AM 68.6°F20.3°C 55.9°F13.3°C 64% 3.5 mph E5.6 kmh E 5.8 mph9.3 kmh 30.12 in1020.0 mb - 0.00 in0.0 mm 0.00 in0.0 mm
08:00 AM 68.7°F20.4°C 56.0°F13.3°C 64% 3.5 mph E5.6 kmh E 3.5 mph5.6 kmh 30.12 in1020.0 mb - 0.00 in0.0 mm 0.00 in0.0 mm
07:50 AM 68.6°F20.3°C 55.9°F13.3°C 64% 3.5 mph E5.6 kmh E 4.6 mph7.4 kmh 30.12 in1020.0 mb - 0.00 in0.0 mm 0.00 in0.0 mm
07:40 AM 68.3°F20.2°C 54.8°F12.7°C 62% 4.6 mph E7.4 kmh E 5.8 mph9.3 kmh 30.12 in1020.0 mb - 0.00 in0.0 mm 0.00 in0.0 mm
07:30 AM 67.3°F19.6°C 51.5°F10.8°C 57% 6.9 mph E11.1 kmh E 11.5 mph18.5 kmh 30.11 in1019.6 mb - 0.00 in0.0 mm 0.00 in0.0 mm
07:20 AM 66.7°F19.3°C 53.3°F11.8°C 62% 3.5 mph E5.6 kmh E 3.5 mph5.6 kmh 30.11 in1019.6 mb - 0.00 in0.0 mm 0.00 in0.0 mm
07:10 AM 66.3°F19.1°C 53.8°F12.1°C 64% 4.6 mph E7.4 kmh E 6.9 mph11.1 kmh 30.11 in1019.6 mb - 0.00 in0.0 mm 0.00 in0.0 mm
07:00 AM 66.5°F19.2°C 53.5°F11.9°C 63% 2.3 mph E3.7 kmh E 5.8 mph9.3 kmh 30.11 in1019.6 mb - 0.00 in0.0 mm 0.00 in0.0 mm
06:50 AM 66.4°F19.1°C 48.8°F9.3°C 53% 4.6 mph E7.4 kmh E 10.4 mph16.7 kmh 30.11 in1019.6 mb - 0.00 in0.0 mm 0.00 in0.0 mm
06:40 AM 66.3°F19.1°C 49.1°F9.5°C 54% 9.2 mph E14.8 kmh E 11.5 mph18.5 kmh 30.11 in1019.6 mb - 0.00 in0.0 mm 0.00 in0.0 mm
06:30 AM 66.5°F19.2°C 50.4°F10.2°C 56% 4.6 mph E7.4 kmh E 10.4 mph16.7 kmh 30.10 in1019.3 mb - 0.00 in0.0 mm 0.00 in0.0 mm
06:20 AM 67.0°F19.4°C 49.8°F9.9°C 54% 6.9 mph E11.1 kmh E 11.5 mph18.5 kmh 30.10 in1019.3 mb - 0.00 in0.0 mm 0.00 in0.0 mm
06:10 AM 66.9°F19.4°C 47.6°F8.7°C 50% 8.1 mph ENE13.0 kmh ENE 17.3 mph27.8 kmh 30.11 in1019.6 mb - 0.00 in0.0 mm 0.00 in0.0 mm
06:00 AM 66.7°F19.3°C 49.5°F9.7°C 54% 5.8 mph E9.3 kmh E 11.5 mph18.5 kmh 30.11 in1019.6 mb - 0.00 in0.0 mm 0.00 in0.0 mm
05:50 AM 66.8°F19.3°C 49.6°F9.8°C 54% 5.8 mph E9.3 kmh E 10.4 mph16.7 kmh 30.11 in1019.6 mb - 0.00 in0.0 mm 0.00 in0.0 mm
05:40 AM 66.7°F19.3°C 50.0°F10.0°C 55% 5.8 mph ESE9.3 kmh ESE 6.9 mph11.1 kmh 30.11 in1019.6 mb - 0.00 in0.0 mm 0.00 in0.0 mm
05:30 AM 66.6°F19.2°C 53.2°F11.8°C 62% 3.5 mph SE5.6 kmh SE 6.9 mph11.1 kmh 30.11 in1019.6 mb - 0.00 in0.0 mm 0.00 in0.0 mm
05:20 AM 67.2°F19.6°C 53.7°F12.1°C 62% 9.2 mph SE14.8 kmh SE 12.7 mph20.4 kmh 30.11 in1019.6 mb - 0.00 in0.0 mm 0.00 in0.0 mm
05:10 AM 67.2°F19.6°C 51.4°F10.8°C 57% 5.8 mph E9.3 kmh E 10.4 mph16.7 kmh 30.10 in1019.3 mb - 0.00 in0.0 mm 0.00 in0.0 mm
05:00 AM 67.4°F19.7°C 50.7°F10.4°C 55% 9.2 mph ESE14.8 kmh ESE 11.5 mph18.5 kmh 30.10 in1019.3 mb - 0.00 in0.0 mm 0.00 in0.0 mm
04:50 AM 67.3°F19.6°C 50.1°F10.1°C 54% 6.9 mph E11.1 kmh E 11.5 mph18.5 kmh 30.10 in1019.3 mb - 0.00 in0.0 mm 0.00 in0.0 mm
04:40 AM 66.9°F19.4°C 49.7°F9.8°C 54% 9.2 mph E14.8 kmh E 12.7 mph20.4 kmh 30.10 in1019.3 mb - 0.00 in0.0 mm 0.00 in0.0 mm
04:30 AM 66.1°F18.9°C 50.4°F10.2°C 57% 4.6 mph E7.4 kmh E 6.9 mph11.1 kmh 30.10 in1019.3 mb - 0.00 in0.0 mm 0.00 in0.0 mm
04:20 AM 65.8°F18.8°C 53.3°F11.8°C 64% 1.2 mph E1.9 kmh E 2.3 mph3.7 kmh 30.11 in1019.6 mb - 0.00 in0.0 mm 0.00 in0.0 mm
04:10 AM 65.0°F18.3°C 52.1°F11.2°C 63% 3.5 mph ENE5.6 kmh ENE 3.5 mph5.6 kmh 30.11 in1019.6 mb - 0.00 in0.0 mm 0.00 in0.0 mm
04:00 AM 64.5°F18.1°C 51.2°F10.7°C 62% 4.6 mph ENE7.4 kmh ENE 6.9 mph11.1 kmh 30.11 in1019.6 mb - 0.00 in0.0 mm 0.00 in0.0 mm
03:50 AM 64.5°F18.1°C 52.5°F11.4°C 65% 2.3 mph ENE3.7 kmh ENE 3.5 mph5.6 kmh 30.11 in1019.6 mb - 0.00 in0.0 mm 0.00 in0.0 mm
03:40 AM 64.8°F18.2°C 51.9°F11.1°C 63% Calm Calm 2.3 mph3.7 kmh 30.12 in1020.0 mb - 0.00 in0.0 mm 0.00 in0.0 mm
03:30 AM 65.2°F18.4°C 52.7°F11.5°C 64% 3.5 mph ENE5.6 kmh ENE 4.6 mph7.4 kmh 30.11 in1019.6 mb - 0.00 in0.0 mm 0.00 in0.0 mm
03:20 AM 65.5°F18.6°C 53.4°F11.9°C 65% Calm Calm 3.5 mph5.6 kmh 30.12 in1020.0 mb - 0.00 in0.0 mm 0.00 in0.0 mm
03:10 AM 66.1°F18.9°C 53.9°F12.2°C 65% Calm Calm -- 30.12 in1020.0 mb - 0.00 in0.0 mm 0.00 in0.0 mm
03:00 AM 66.5°F19.2°C 53.9°F12.2°C 64% Calm Calm 3.5 mph5.6 kmh 30.12 in1020.0 mb - 0.00 in0.0 mm 0.00 in0.0 mm
02:50 AM 66.8°F19.3°C 53.8°F12.1°C 63% Calm Calm -- 30.12 in1020.0 mb - 0.00 in0.0 mm 0.00 in0.0 mm
02:40 AM 67.1°F19.5°C 50.9°F10.5°C 56% 5.8 mph ENE9.3 kmh ENE 6.9 mph11.1 kmh 30.13 in1020.3 mb - 0.00 in0.0 mm 0.00 in0.0 mm
02:30 AM 66.9°F19.4°C 51.2°F10.7°C 57% 4.6 mph NE7.4 kmh NE 3.5 mph5.6 kmh 30.13 in1020.3 mb - 0.00 in0.0 mm 0.00 in0.0 mm
02:20 AM 66.1°F18.9°C 51.4°F10.8°C 59% 4.6 mph NE7.4 kmh NE 10.4 mph16.7 kmh 30.13 in1020.3 mb - 0.00 in0.0 mm 0.00 in0.0 mm
02:10 AM 65.0°F18.3°C 51.7°F10.9°C 62% 3.5 mph E5.6 kmh E 9.2 mph14.8 kmh 30.14 in1020.7 mb - 0.00 in0.0 mm 0.00 in0.0 mm
02:00 AM 65.1°F18.4°C 53.0°F11.7°C 65% 1.2 mph E1.9 kmh E 3.5 mph5.6 kmh 30.14 in1020.7 mb - 0.00 in0.0 mm 0.00 in0.0 mm
01:50 AM 65.3°F18.5°C 53.2°F11.8°C 65% 3.5 mph E5.6 kmh E 3.5 mph5.6 kmh 30.14 in1020.7 mb - 0.00 in0.0 mm 0.00 in0.0 mm
01:40 AM 65.6°F18.7°C 53.9°F12.2°C 66% 2.3 mph E3.7 kmh E 3.5 mph5.6 kmh 30.15 in1021.0 mb - 0.00 in0.0 mm 0.00 in0.0 mm
01:30 AM 65.8°F18.8°C 54.1°F12.3°C 66% 3.5 mph E5.6 kmh E 3.5 mph5.6 kmh 30.15 in1021.0 mb - 0.00 in0.0 mm 0.00 in0.0 mm
01:20 AM 65.4°F18.6°C 51.6°F10.9°C 61% 4.6 mph E7.4 kmh E 5.8 mph9.3 kmh 30.15 in1021.0 mb - 0.00 in0.0 mm 0.00 in0.0 mm
01:10 AM 65.4°F18.6°C 50.7°F10.4°C 59% 3.5 mph E5.6 kmh E 5.8 mph9.3 kmh 30.15 in1021.0 mb - 0.00 in0.0 mm 0.00 in0.0 mm
01:00 AM 65.7°F18.7°C 51.9°F11.1°C 61% 2.3 mph E3.7 kmh E 3.5 mph5.6 kmh 30.16 in1021.3 mb - 0.00 in0.0 mm 0.00 in0.0 mm
12:50 AM 66.3°F19.1°C 53.8°F12.1°C 64% Calm Calm 2.3 mph3.7 kmh 30.16 in1021.3 mb - 0.00 in0.0 mm 0.00 in0.0 mm
12:40 AM 66.2°F19.0°C 51.4°F10.8°C 59% 2.3 mph E3.7 kmh E 3.5 mph5.6 kmh 30.17 in1021.7 mb - 0.00 in0.0 mm 0.00 in0.0 mm
12:30 AM 66.4°F19.1°C 51.2°F10.7°C 58% 3.5 mph E5.6 kmh E 3.5 mph5.6 kmh 30.17 in1021.7 mb - 0.00 in0.0 mm 0.00 in0.0 mm
12:20 AM 66.6°F19.2°C 49.4°F9.7°C 54% 2.3 mph E3.7 kmh E 3.5 mph5.6 kmh 30.17 in1021.7 mb - 0.00 in0.0 mm 0.00 in0.0 mm
12:10 AM 66.5°F19.2°C 49.3°F9.6°C 54% 3.5 mph E5.6 kmh E 3.5 mph5.6 kmh 30.18 in1022.0 mb - 0.00 in0.0 mm 0.00 in0.0 mm
12:00 AM 66.4°F19.1°C 49.2°F9.6°C 54% 4.6 mph E7.4 kmh E 5.8 mph9.3 kmh 30.18 in1022.0 mb - 0.00 in0.0 mm 0.00 in0.0 mm